createdAt,value
2023-04-06T00:00:27.180Z,10.85
2023-04-06T00:01:29.669Z,8.48
2023-04-06T00:02:32.330Z,9.88
2023-04-06T00:03:35.537Z,9.55
2023-04-06T00:04:38.192Z,9.82
2023-04-06T00:05:41.171Z,9.68
2023-04-06T00:06:43.754Z,6.63
2023-04-06T00:07:46.329Z,8.48
2023-04-06T00:08:48.904Z,8.70
2023-04-06T00:09:51.562Z,8.90
2023-04-06T00:10:54.046Z,11.02
2023-04-06T00:11:57.508Z,8.48
2023-04-06T00:13:01.094Z,7.20
2023-04-06T00:14:03.709Z,10.15
2023-04-06T00:15:07.552Z,8.38
2023-04-06T00:16:10.473Z,8.65
2023-04-06T00:17:12.983Z,9.13
2023-04-06T00:18:15.533Z,13.98
2023-04-06T00:19:18.113Z,10.40
2023-04-06T00:20:20.546Z,9.30
2023-04-06T00:21:24.333Z,6.53
2023-04-06T00:22:26.916Z,7.72
2023-04-06T00:23:29.315Z,10.38
2023-04-06T00:24:31.805Z,10.07
2023-04-06T00:25:34.237Z,9.45
2023-04-06T00:26:37.142Z,6.65
2023-04-06T00:27:39.992Z,8.65
2023-04-06T00:28:43.446Z,8.55
2023-04-06T00:29:46.456Z,10.05
2023-04-06T00:30:48.902Z,9.85
2023-04-06T00:31:51.433Z,10.93
2023-04-06T00:32:53.967Z,9.60
2023-04-06T00:33:56.605Z,10.60
2023-04-06T00:34:59.803Z,7.72
2023-04-06T00:36:02.541Z,10.57
2023-04-06T00:37:05.150Z,9.07
2023-04-06T00:38:07.987Z,9.55
2023-04-06T00:39:11.171Z,9.75
2023-04-06T00:40:14.177Z,10.73
2023-04-06T00:41:17.050Z,6.43
2023-04-06T00:42:26.190Z,9.52
2023-04-06T00:43:28.628Z,6.95
2023-04-06T00:44:32.959Z,7.03
2023-04-06T00:45:35.609Z,7.03
2023-04-06T00:46:38.141Z,8.50
2023-04-06T00:47:40.599Z,10.17
2023-04-06T00:48:43.175Z,6.93
2023-04-06T00:49:45.653Z,9.50
2023-04-06T00:50:48.066Z,7.18
2023-04-06T00:51:50.521Z,9.05
2023-04-06T00:52:53.889Z,6.80
2023-04-06T00:54:00.987Z,8.32
2023-04-06T00:55:06.475Z,9.35
2023-04-06T00:56:13.151Z,9.35
2023-04-06T00:57:27.730Z,7.90
2023-04-06T00:58:32.515Z,7.50
2023-04-06T00:59:42.049Z,7.03
2023-04-06T01:00:47.058Z,6.78
2023-04-06T01:01:53.653Z,5.93
2023-04-06T01:03:14.735Z,7.78
2023-04-06T01:04:19.249Z,5.95
2023-04-06T01:05:21.801Z,9.57
2023-04-06T01:06:28.073Z,9.60
2023-04-06T01:07:35.346Z,9.35
2023-04-06T01:08:53.964Z,7.55
2023-04-06T01:10:02.360Z,9.30
2023-04-06T01:11:09.108Z,7.30
2023-04-06T01:12:12.306Z,9.63
2023-04-06T01:13:14.764Z,8.50
2023-04-06T01:14:38.245Z,9.60
2023-04-06T01:15:42.271Z,8.55
2023-04-06T01:16:47.108Z,11.15
2023-04-06T01:17:52.790Z,14.20
2023-04-06T01:18:55.200Z,9.43
2023-04-06T01:20:03.573Z,7.93
2023-04-06T01:21:09.685Z,8.57
2023-04-06T01:22:17.728Z,7.63
2023-04-06T01:23:28.125Z,9.52
2023-04-06T01:24:31.331Z,8.43
2023-04-06T01:26:00.036Z,6.22
2023-04-06T01:27:04.447Z,5.90
2023-04-06T01:28:16.712Z,8.43
2023-04-06T01:29:29.162Z,5.80
2023-04-06T01:30:41.263Z,8.57
2023-04-06T01:31:57.823Z,8.40
2023-04-06T01:33:01.202Z,5.97
2023-04-06T01:34:32.913Z,7.38
2023-04-06T01:35:39.276Z,7.53
2023-04-06T01:36:49.280Z,8.60
2023-04-06T01:39:07.718Z,5.80
2023-04-06T01:40:14.732Z,8.30
2023-04-06T01:41:24.715Z,13.65
2023-04-06T01:42:29.373Z,6.90
2023-04-06T01:43:32.258Z,7.20
2023-04-06T01:45:50.687Z,5.72
2023-04-06T01:46:56.742Z,8.65
2023-04-06T01:47:59.473Z,8.20
2023-04-06T01:49:03.421Z,6.38
2023-04-06T01:50:11.507Z,6.18
2023-04-06T01:51:18.969Z,5.88
2023-04-06T01:52:30.661Z,7.38
2023-04-06T01:53:33.658Z,9.13
2023-04-06T01:54:40.892Z,8.02
2023-04-06T01:55:59.128Z,6.90
2023-04-06T01:57:06.421Z,6.35
2023-04-06T01:58:16.044Z,6.25
2023-04-06T01:59:18.626Z,9.30
2023-04-06T02:00:21.617Z,8.07
2023-04-06T02:01:29.097Z,8.60
2023-04-06T02:02:33.720Z,4.80
2023-04-06T02:03:40.561Z,10.30
2023-04-06T02:04:46.323Z,8.70
2023-04-06T02:05:50.524Z,6.80
2023-04-06T02:08:06.370Z,4.70
2023-04-06T02:09:11.188Z,8.23
2023-04-06T02:10:15.109Z,6.85
2023-04-06T02:11:18.859Z,6.15
2023-04-06T02:12:28.191Z,6.32
2023-04-06T02:13:31.019Z,6.85
2023-04-06T02:14:34.469Z,10.23
2023-04-06T02:15:37.464Z,6.38
2023-04-06T02:16:40.884Z,4.82
2023-04-06T02:17:43.915Z,6.45
2023-04-06T02:18:46.882Z,6.10
2023-04-06T02:19:49.299Z,5.93
2023-04-06T02:20:52.083Z,8.45
2023-04-06T02:21:54.938Z,17.17
2023-04-06T02:22:59.755Z,5.88
2023-04-06T02:24:02.327Z,5.28
2023-04-06T02:25:06.014Z,9.23
2023-04-06T02:26:09.378Z,7.65
2023-04-06T02:27:12.136Z,4.32
2023-04-06T02:28:14.654Z,5.78
2023-04-06T02:29:17.119Z,6.78
2023-04-06T02:30:19.580Z,5.15
2023-04-06T02:31:22.927Z,6.65
2023-04-06T02:32:26.342Z,5.90
2023-04-06T02:33:29.591Z,6.10
2023-04-06T02:34:32.137Z,12.07
2023-04-06T02:35:34.599Z,6.80
2023-04-06T02:36:37.108Z,3.90
2023-04-06T02:37:39.639Z,4.95
2023-04-06T02:38:42.205Z,7.30
2023-04-06T02:39:48.430Z,7.22
2023-04-06T02:40:51.078Z,8.05
2023-04-06T02:42:01.992Z,6.63
2023-04-06T02:43:05.938Z,6.57
2023-04-06T02:44:09.729Z,6.05
2023-04-06T02:45:19.701Z,6.60
2023-04-06T02:46:23.732Z,6.10
2023-04-06T02:47:26.385Z,5.75
2023-04-06T02:48:28.882Z,6.45
2023-04-06T02:49:31.328Z,6.20
2023-04-06T02:50:35.748Z,8.15
2023-04-06T02:51:42.033Z,6.43
2023-04-06T02:53:04.191Z,10.82
2023-04-06T02:54:12.137Z,57.45
2023-04-06T02:55:14.810Z,92.53
2023-04-06T02:56:17.353Z,71.05
2023-04-06T02:57:25.253Z,55.17
2023-04-06T02:58:27.946Z,44.67
2023-04-06T02:59:35.929Z,44.33
2023-04-06T03:00:48.094Z,44.38
2023-04-06T03:01:50.845Z,35.80
2023-04-06T03:02:53.826Z,32.08
2023-04-06T03:03:56.488Z,31.08
2023-04-06T03:05:02.469Z,38.05
2023-04-06T03:06:10.571Z,30.05
2023-04-06T03:07:13.286Z,29.63
2023-04-06T03:08:16.350Z,29.75
2023-04-06T03:09:21.106Z,27.40
2023-04-06T03:10:23.602Z,23.38
2023-04-06T03:11:27.396Z,33.13
2023-04-06T03:12:29.875Z,23.38
2023-04-06T03:14:04.586Z,33.53
2023-04-06T03:15:07.622Z,28.88
2023-04-06T03:16:11.031Z,31.77
2023-04-06T03:17:13.784Z,27.13
2023-04-06T03:18:16.212Z,31.38
2023-04-06T03:19:23.879Z,26.92
2023-04-06T03:20:27.173Z,24.85
2023-04-06T03:21:29.672Z,23.45
2023-04-06T03:22:32.163Z,20.63
2023-04-06T03:23:34.635Z,21.88
2023-04-06T03:24:38.268Z,20.05
2023-04-06T03:25:41.536Z,20.95
2023-04-06T03:26:46.564Z,23.58
2023-04-06T03:27:49.206Z,18.63
2023-04-06T03:28:54.421Z,20.23
2023-04-06T03:30:01.682Z,19.17
2023-04-06T03:31:09.137Z,18.67
2023-04-06T03:32:27.200Z,18.60
2023-04-06T03:33:29.793Z,22.48
2023-04-06T03:34:33.059Z,20.15
2023-04-06T03:35:35.682Z,20.25
2023-04-06T03:36:38.261Z,20.10
2023-04-06T03:37:40.988Z,28.60
2023-04-06T03:38:43.397Z,106.63
2023-04-06T03:39:50.361Z,92.88
2023-04-06T03:40:57.470Z,59.72
2023-04-06T03:42:02.833Z,64.28
2023-04-06T03:43:13.466Z,50.30
2023-04-06T03:44:16.489Z,49.35
2023-04-06T03:45:20.458Z,47.08
2023-04-06T03:46:26.547Z,47.55
2023-04-06T03:47:31.994Z,45.90
2023-04-06T03:48:38.653Z,36.42
2023-04-06T03:49:42.619Z,35.65
2023-04-06T03:50:47.430Z,33.72
2023-04-06T03:51:49.985Z,26.27
2023-04-06T03:52:52.422Z,24.90
2023-04-06T03:53:54.856Z,25.00
2023-04-06T03:54:57.278Z,22.10
2023-04-06T03:55:59.808Z,24.48
2023-04-06T03:57:04.799Z,21.25
2023-04-06T03:58:07.250Z,22.38
2023-04-06T03:59:09.860Z,22.60
2023-04-06T04:00:13.683Z,24.05
2023-04-06T04:01:16.637Z,22.98
2023-04-06T04:02:19.266Z,19.17
2023-04-06T04:03:24.525Z,21.20
2023-04-06T04:04:27.160Z,18.67
2023-04-06T04:05:29.835Z,21.70
2023-04-06T04:06:32.350Z,28.23
2023-04-06T04:07:34.880Z,69.18
2023-04-06T04:08:37.551Z,57.13
2023-04-06T04:09:40.085Z,46.40
2023-04-06T04:10:42.476Z,30.25
2023-04-06T04:11:44.949Z,31.42
2023-04-06T04:12:47.457Z,25.55
2023-04-06T04:13:50.016Z,24.60
2023-04-06T04:14:52.367Z,24.75
2023-04-06T04:15:54.731Z,22.98
2023-04-06T04:16:59.681Z,21.80
2023-04-06T04:18:02.315Z,22.35
2023-04-06T04:19:04.876Z,21.85
2023-04-06T04:20:08.014Z,22.15
2023-04-06T04:21:11.384Z,22.27
2023-04-06T04:22:14.141Z,24.08
2023-04-06T04:23:18.663Z,22.55
2023-04-06T04:24:21.120Z,22.00
2023-04-06T04:25:24.395Z,19.65
2023-04-06T04:26:26.759Z,20.70
2023-04-06T04:27:30.196Z,19.33
2023-04-06T04:28:32.629Z,20.58
2023-04-06T04:29:35.568Z,19.55
2023-04-06T04:30:42.237Z,21.50
2023-04-06T04:31:47.149Z,17.23
2023-04-06T04:32:53.290Z,20.48
2023-04-06T04:34:00.301Z,20.10
2023-04-06T04:35:07.286Z,19.90
2023-04-06T04:36:13.134Z,23.95
2023-04-06T04:37:18.710Z,17.90
2023-04-06T04:38:32.105Z,16.17
2023-04-06T04:39:34.931Z,17.67
2023-04-06T04:40:41.421Z,19.17
2023-04-06T04:41:47.192Z,20.70
2023-04-06T04:42:51.936Z,17.73
2023-04-06T04:44:03.981Z,17.67
2023-04-06T04:45:06.806Z,17.60
2023-04-06T04:46:13.503Z,16.23
2023-04-06T04:47:19.887Z,17.95
2023-04-06T04:48:23.807Z,14.73
2023-04-06T04:49:34.258Z,18.53
2023-04-06T04:50:36.946Z,19.75
2023-04-06T04:51:39.429Z,20.15
2023-04-06T04:52:48.178Z,18.88
2023-04-06T04:53:57.695Z,14.63
2023-04-06T04:55:04.037Z,16.95
2023-04-06T04:56:08.937Z,15.05
2023-04-06T04:57:11.354Z,18.98
2023-04-06T04:58:20.631Z,18.50
2023-04-06T04:59:31.189Z,17.60
2023-04-06T05:00:44.202Z,16.00
2023-04-06T05:01:54.977Z,17.98
2023-04-06T05:03:06.003Z,17.00
2023-04-06T05:04:12.156Z,18.17
2023-04-06T05:05:14.970Z,14.55
2023-04-06T05:06:17.879Z,14.30
2023-04-06T05:07:21.790Z,13.77
2023-04-06T05:08:25.342Z,16.10
2023-04-06T05:09:27.795Z,15.57
2023-04-06T05:10:30.371Z,14.68
2023-04-06T05:11:36.274Z,15.70
2023-04-06T05:12:39.285Z,14.57
2023-04-06T05:13:43.744Z,16.42
2023-04-06T05:14:52.126Z,16.50
2023-04-06T05:15:56.156Z,16.90
2023-04-06T05:17:05.271Z,15.40
2023-04-06T05:18:12.017Z,13.10
2023-04-06T05:19:14.705Z,13.65
2023-04-06T05:20:20.222Z,16.52
2023-04-06T05:21:27.437Z,16.67
2023-04-06T05:22:37.204Z,16.02
2023-04-06T05:23:43.918Z,14.98
2023-04-06T05:24:47.065Z,15.95
2023-04-06T05:25:51.114Z,16.60
2023-04-06T05:26:57.412Z,14.75
2023-04-06T05:28:01.346Z,14.52
2023-04-06T05:29:12.423Z,14.82
2023-04-06T05:30:16.414Z,14.98
2023-04-06T05:31:22.376Z,15.05
2023-04-06T05:32:28.031Z,16.23
2023-04-06T05:33:30.752Z,23.55
2023-04-06T05:34:38.907Z,30.90
2023-04-06T05:35:41.485Z,36.45
2023-04-06T05:36:48.277Z,41.75
2023-04-06T05:37:54.586Z,28.50
2023-04-06T05:39:00.350Z,21.20
2023-04-06T05:40:11.546Z,17.42
2023-04-06T05:41:13.971Z,17.30
2023-04-06T05:42:17.964Z,16.40
2023-04-06T05:43:28.023Z,15.60
2023-04-06T05:44:33.300Z,15.93
2023-04-06T05:45:44.967Z,17.83
2023-04-06T05:46:47.462Z,17.23
2023-04-06T05:47:53.430Z,17.83
2023-04-06T05:49:00.531Z,18.00
2023-04-06T05:50:06.979Z,20.98
2023-04-06T05:51:12.480Z,15.57
2023-04-06T05:52:21.811Z,15.45
2023-04-06T05:53:27.367Z,16.42
2023-04-06T05:54:32.835Z,15.48
2023-04-06T05:55:37.667Z,14.80
2023-04-06T05:56:47.561Z,14.50
2023-04-06T05:57:56.385Z,15.75
2023-04-06T05:58:59.085Z,16.30
2023-04-06T06:00:07.810Z,16.83
2023-04-06T06:01:21.625Z,17.27
2023-04-06T06:02:25.061Z,13.98
2023-04-06T06:03:30.254Z,14.93
2023-04-06T06:04:34.555Z,14.55
2023-04-06T06:05:37.840Z,13.77
2023-04-06T06:06:46.315Z,21.50
2023-04-06T06:07:55.677Z,11.73
2023-04-06T06:09:02.143Z,15.25
2023-04-06T06:10:09.272Z,14.30
2023-04-06T06:11:13.070Z,13.60
2023-04-06T06:12:16.121Z,16.88
2023-04-06T06:13:18.659Z,12.25
2023-04-06T06:14:23.158Z,13.68
2023-04-06T06:15:25.776Z,16.17
2023-04-06T06:16:28.856Z,22.75
2023-04-06T06:17:31.479Z,18.13
2023-04-06T06:18:34.384Z,13.80
2023-04-06T06:19:36.858Z,17.15
2023-04-06T06:20:42.444Z,14.57
2023-04-06T06:21:44.845Z,14.00
2023-04-06T06:22:47.199Z,15.25
2023-04-06T06:23:54.998Z,14.02
2023-04-06T06:24:57.995Z,12.43
2023-04-06T06:26:02.091Z,12.05
2023-04-06T06:27:05.450Z,14.57
2023-04-06T06:28:13.629Z,15.85
2023-04-06T06:29:16.325Z,13.15
2023-04-06T06:30:21.496Z,12.32
2023-04-06T06:31:25.661Z,15.27
2023-04-06T06:32:28.355Z,12.75
2023-04-06T06:33:30.910Z,14.95
2023-04-06T06:34:34.614Z,11.05
2023-04-06T06:35:39.807Z,15.52
2023-04-06T06:36:42.427Z,14.45
2023-04-06T06:37:47.241Z,13.32
2023-04-06T06:38:53.208Z,13.70
2023-04-06T06:39:57.390Z,15.85
2023-04-06T06:41:00.052Z,13.45
2023-04-06T06:42:06.441Z,15.48
2023-04-06T06:43:41.106Z,14.32
2023-04-06T06:44:45.922Z,15.85
2023-04-06T06:45:48.919Z,12.98
2023-04-06T06:46:51.573Z,12.40
2023-04-06T06:47:55.736Z,16.00
2023-04-06T06:48:59.901Z,14.65
2023-04-06T06:50:04.089Z,11.80
2023-04-06T06:51:06.614Z,15.27
2023-04-06T06:52:09.117Z,12.52
2023-04-06T06:53:12.578Z,14.38
2023-04-06T06:54:15.312Z,10.88
2023-04-06T06:55:19.914Z,12.50
2023-04-06T06:56:22.999Z,8.65
2023-04-06T06:57:27.474Z,15.07
2023-04-06T06:58:29.935Z,12.13
2023-04-06T06:59:32.633Z,13.35
2023-04-06T07:00:35.606Z,8.60
2023-04-06T07:01:38.653Z,14.52
2023-04-06T07:02:41.653Z,9.88
2023-04-06T07:03:44.225Z,13.85
2023-04-06T07:04:50.326Z,11.50
2023-04-06T07:05:56.258Z,10.13
2023-04-06T07:07:00.647Z,11.25
2023-04-06T07:08:03.242Z,10.80
2023-04-06T07:09:06.071Z,14.38
2023-04-06T07:10:09.971Z,13.20
2023-04-06T07:11:14.522Z,10.70
2023-04-06T07:12:17.642Z,9.13
2023-04-06T07:13:24.908Z,12.93
2023-04-06T07:14:30.527Z,13.25
2023-04-06T07:15:35.064Z,11.48
2023-04-06T07:16:38.386Z,12.18
2023-04-06T07:17:42.461Z,10.40
2023-04-06T07:18:45.232Z,11.40
2023-04-06T07:19:57.419Z,13.70
2023-04-06T07:21:01.945Z,9.80
2023-04-06T07:22:05.604Z,11.25
2023-04-06T07:23:08.384Z,12.70
2023-04-06T07:24:11.403Z,10.88
2023-04-06T07:25:14.181Z,13.45
2023-04-06T07:26:17.593Z,10.80
2023-04-06T07:27:20.126Z,11.07
2023-04-06T07:28:23.590Z,10.40
2023-04-06T07:29:26.071Z,11.20
2023-04-06T07:30:31.711Z,11.48
2023-04-06T07:31:37.017Z,11.73
2023-04-06T07:32:40.223Z,15.52
2023-04-06T07:33:43.839Z,12.93
2023-04-06T07:34:47.842Z,8.88
2023-04-06T07:35:51.576Z,9.25
2023-04-06T07:36:55.525Z,11.90
2023-04-06T07:37:58.264Z,13.48
2023-04-06T07:39:00.930Z,9.43
2023-04-06T07:40:03.605Z,11.10
2023-04-06T07:41:06.469Z,11.15
2023-04-06T07:42:09.218Z,10.10
2023-04-06T07:43:11.778Z,13.18
2023-04-06T07:44:14.275Z,12.27
2023-04-06T07:45:16.912Z,10.93
2023-04-06T07:46:19.620Z,11.60
2023-04-06T07:47:22.754Z,12.43
2023-04-06T07:48:25.402Z,10.43
2023-04-06T07:49:27.919Z,10.77
2023-04-06T07:50:31.198Z,13.45
2023-04-06T07:51:34.089Z,9.50
2023-04-06T07:52:39.465Z,8.90
2023-04-06T07:54:07.298Z,8.45
2023-04-06T07:55:10.755Z,12.68
2023-04-06T07:56:13.521Z,10.32
2023-04-06T07:57:16.287Z,10.77
2023-04-06T07:58:19.125Z,20.15
2023-04-06T07:59:21.889Z,12.95
2023-04-06T08:00:24.499Z,10.60
2023-04-06T08:01:28.714Z,10.02
2023-04-06T08:02:34.391Z,13.30
2023-04-06T08:03:37.378Z,9.48
2023-04-06T08:04:40.025Z,15.75
2023-04-06T08:05:42.517Z,12.75
2023-04-06T08:06:45.157Z,9.57
2023-04-06T08:07:47.768Z,11.63
2023-04-06T08:08:50.525Z,11.18
2023-04-06T08:09:53.229Z,12.60
2023-04-06T08:10:55.812Z,10.43
2023-04-06T08:11:58.792Z,9.40
2023-04-06T08:13:01.653Z,12.80
2023-04-06T08:14:04.127Z,9.73
2023-04-06T08:15:07.096Z,9.98
2023-04-06T08:16:09.775Z,13.02
2023-04-06T08:17:12.727Z,14.18
2023-04-06T08:18:15.166Z,11.98
2023-04-06T08:19:19.846Z,9.55
2023-04-06T08:20:22.386Z,11.13
2023-04-06T08:21:24.851Z,9.68
2023-04-06T08:22:27.398Z,8.80
2023-04-06T08:23:29.845Z,8.98
2023-04-06T08:24:33.315Z,12.40
2023-04-06T08:25:36.977Z,11.52
2023-04-06T08:26:39.679Z,12.52
2023-04-06T08:27:42.232Z,9.55
2023-04-06T08:28:46.955Z,12.90
2023-04-06T08:29:50.756Z,13.20
2023-04-06T08:30:53.827Z,12.80
2023-04-06T08:31:56.433Z,15.05
2023-04-06T08:32:59.213Z,12.02
2023-04-06T08:34:02.813Z,9.25
2023-04-06T08:35:05.636Z,10.50
2023-04-06T08:36:13.009Z,6.72
2023-04-06T08:37:16.189Z,8.02
2023-04-06T08:38:18.844Z,19.27
2023-04-06T08:39:26.406Z,12.68
2023-04-06T08:40:29.301Z,7.28
2023-04-06T08:41:33.084Z,9.95
2023-04-06T08:42:45.017Z,8.88
2023-04-06T08:43:58.093Z,12.27
2023-04-06T08:45:01.559Z,10.65
2023-04-06T08:46:04.451Z,9.63
2023-04-06T08:47:07.418Z,11.90
2023-04-06T08:48:10.741Z,11.05
2023-04-06T08:49:15.138Z,11.18
2023-04-06T08:50:19.036Z,8.73
2023-04-06T08:51:23.131Z,7.05
2023-04-06T08:52:27.795Z,10.00
2023-04-06T08:53:31.333Z,7.20
2023-04-06T08:54:33.926Z,12.93
2023-04-06T08:55:37.803Z,11.35
2023-04-06T08:56:40.808Z,9.30
2023-04-06T08:57:44.153Z,11.43
2023-04-06T08:58:48.732Z,7.13
2023-04-06T08:59:52.309Z,9.48
2023-04-06T09:00:56.054Z,14.93
2023-04-06T09:02:00.436Z,7.13
2023-04-06T09:03:04.718Z,6.93
2023-04-06T09:04:12.303Z,8.27
2023-04-06T09:05:16.826Z,7.38
2023-04-06T09:06:20.269Z,14.10
2023-04-06T09:07:23.048Z,12.80
2023-04-06T09:08:25.879Z,9.10
2023-04-06T09:09:28.456Z,12.15
2023-04-06T09:10:30.977Z,11.20
2023-04-06T09:11:48.490Z,7.72
2023-04-06T09:12:51.360Z,7.10
2023-04-06T09:13:56.826Z,14.43
2023-04-06T09:15:00.366Z,9.85
2023-04-06T09:16:05.091Z,6.57
2023-04-06T09:17:07.741Z,21.58
2023-04-06T09:18:10.194Z,6.18
2023-04-06T09:19:13.506Z,8.68
2023-04-06T09:20:24.777Z,11.68
2023-04-06T09:21:27.763Z,7.30
2023-04-06T09:22:40.544Z,10.30
2023-04-06T09:23:43.177Z,13.38
2023-04-06T09:24:46.177Z,7.82
2023-04-06T09:25:48.877Z,6.75
2023-04-06T09:26:51.378Z,7.85
2023-04-06T09:28:02.636Z,6.72
2023-04-06T09:29:05.138Z,7.70
2023-04-06T09:30:10.841Z,7.60
2023-04-06T09:31:15.783Z,7.43
2023-04-06T09:32:19.210Z,15.07
2023-04-06T09:33:25.033Z,6.28
2023-04-06T09:34:29.854Z,6.55
2023-04-06T09:35:34.149Z,4.95
2023-04-06T09:36:43.402Z,7.07
2023-04-06T09:37:47.080Z,7.25
2023-04-06T09:38:57.775Z,6.95
2023-04-06T09:40:06.317Z,8.48
2023-04-06T09:41:08.841Z,9.57
2023-04-06T09:42:12.598Z,8.60
2023-04-06T09:43:25.682Z,13.10
2023-04-06T09:44:28.454Z,21.65
2023-04-06T09:45:32.018Z,10.55
2023-04-06T09:46:57.774Z,9.73
2023-04-06T09:48:02.704Z,10.00
2023-04-06T09:49:11.873Z,12.02
2023-04-06T09:50:16.575Z,21.77
2023-04-06T09:51:20.598Z,14.50
2023-04-06T09:52:29.341Z,13.05
2023-04-06T09:53:35.831Z,13.38
2023-04-06T09:54:39.479Z,9.55
2023-04-06T09:55:44.066Z,11.98
2023-04-06T09:56:49.134Z,7.93
2023-04-06T09:58:08.382Z,12.18
2023-04-06T09:59:20.520Z,9.23
2023-04-06T10:00:24.364Z,8.15
2023-04-06T10:01:30.823Z,7.28
2023-04-06T10:02:57.471Z,8.50
2023-04-06T10:04:35.772Z,8.63
2023-04-06T10:06:14.474Z,9.82
2023-04-06T10:07:19.207Z,11.23
2023-04-06T10:08:30.929Z,10.65
2023-04-06T10:09:38.176Z,10.32
2023-04-06T10:10:41.285Z,10.65
2023-04-06T10:11:43.819Z,8.93
2023-04-06T10:12:48.578Z,10.50
2023-04-06T10:13:51.421Z,12.55
2023-04-06T10:14:55.170Z,8.10
2023-04-06T10:16:01.356Z,7.53
2023-04-06T10:17:07.303Z,8.95
2023-04-06T10:18:11.024Z,11.13
2023-04-06T10:19:21.825Z,6.20
2023-04-06T10:20:35.818Z,9.07
2023-04-06T10:21:40.826Z,8.65
2023-04-06T10:23:21.068Z,13.15
2023-04-06T10:24:23.686Z,6.50
2023-04-06T10:25:29.679Z,6.18
2023-04-06T10:26:32.636Z,8.80
2023-04-06T10:27:35.224Z,8.63
2023-04-06T10:28:37.888Z,11.43
2023-04-06T10:29:49.979Z,6.60
2023-04-06T10:31:00.607Z,6.10
2023-04-06T10:32:03.399Z,10.63
2023-04-06T10:33:20.388Z,9.40
2023-04-06T10:34:22.957Z,4.63
2023-04-06T10:35:36.911Z,6.93
2023-04-06T10:36:40.268Z,4.45
2023-04-06T10:37:51.768Z,9.85
2023-04-06T10:39:00.625Z,8.20
2023-04-06T10:40:03.170Z,8.43
2023-04-06T10:41:06.809Z,5.72
2023-04-06T10:42:09.934Z,6.82
2023-04-06T10:43:20.966Z,5.35
2023-04-06T10:44:24.946Z,5.30
2023-04-06T10:45:32.469Z,8.43
2023-04-06T10:46:35.288Z,12.55
2023-04-06T10:47:43.230Z,7.03
2023-04-06T10:48:47.687Z,7.28
2023-04-06T10:49:50.496Z,5.88
2023-04-06T10:50:55.864Z,5.18
2023-04-06T10:51:58.786Z,5.75
2023-04-06T10:53:03.013Z,7.65
2023-04-06T10:54:07.481Z,7.05
2023-04-06T10:55:12.984Z,8.85
2023-04-06T10:56:17.594Z,11.88
2023-04-06T10:57:29.944Z,6.10
2023-04-06T10:58:33.068Z,5.05
2023-04-06T10:59:35.837Z,5.55
2023-04-06T11:00:50.565Z,6.45
2023-04-06T11:01:55.998Z,5.95
2023-04-06T11:03:02.233Z,5.03
2023-04-06T11:04:05.061Z,8.35
2023-04-06T11:05:08.240Z,8.35
2023-04-06T11:06:10.961Z,5.78
2023-04-06T11:07:29.263Z,4.82
2023-04-06T11:08:33.235Z,5.57
2023-04-06T11:09:37.577Z,6.55
2023-04-06T11:10:39.989Z,5.85
2023-04-06T11:11:42.399Z,7.13
2023-04-06T11:12:44.931Z,5.03
2023-04-06T11:13:56.575Z,11.57
2023-04-06T11:15:06.936Z,5.30
2023-04-06T11:16:23.628Z,6.20
2023-04-06T11:17:28.105Z,9.82
2023-04-06T11:18:30.649Z,9.50
2023-04-06T11:19:33.207Z,6.47
2023-04-06T11:20:35.856Z,9.18
2023-04-06T11:21:49.410Z,5.47
2023-04-06T11:22:52.850Z,12.10
2023-04-06T11:24:05.934Z,8.63
2023-04-06T11:26:14.821Z,7.13
2023-04-06T11:27:18.249Z,8.57
2023-04-06T11:28:21.662Z,9.95
2023-04-06T11:29:27.264Z,15.75
2023-04-06T11:30:30.235Z,13.20
2023-04-06T11:31:32.985Z,11.88
2023-04-06T11:32:46.272Z,13.55
2023-04-06T11:33:57.401Z,10.63
2023-04-06T11:35:00.559Z,11.90
2023-04-06T11:36:03.284Z,14.93
2023-04-06T11:37:13.026Z,10.75
2023-04-06T11:38:15.930Z,13.57
2023-04-06T11:39:24.689Z,13.27
2023-04-06T11:40:28.903Z,13.23
2023-04-06T11:41:33.299Z,13.93
2023-04-06T11:42:36.601Z,13.50
2023-04-06T11:43:39.038Z,13.80
2023-04-06T11:44:46.949Z,15.02
2023-04-06T11:45:50.015Z,17.25
2023-04-06T11:46:54.497Z,14.65
2023-04-06T11:48:01.521Z,13.63
2023-04-06T11:49:04.474Z,12.05
2023-04-06T11:50:09.400Z,11.82
2023-04-06T11:51:12.779Z,14.18
2023-04-06T11:52:26.125Z,12.13
2023-04-06T11:53:30.241Z,13.20
2023-04-06T11:54:39.230Z,14.75
2023-04-06T11:55:44.579Z,15.82
2023-04-06T11:56:48.236Z,13.48
2023-04-06T11:57:52.705Z,13.95
2023-04-06T11:59:01.039Z,12.23
2023-04-06T12:00:04.358Z,12.93
2023-04-06T12:01:07.900Z,12.98
2023-04-06T12:02:11.062Z,16.83
2023-04-06T12:03:16.849Z,13.73
2023-04-06T12:04:22.633Z,13.55
2023-04-06T12:05:26.445Z,14.88
2023-04-06T12:06:29.218Z,12.18
2023-04-06T12:07:31.963Z,11.88
2023-04-06T12:08:34.714Z,11.77
2023-04-06T12:09:37.992Z,14.85
2023-04-06T12:10:40.763Z,15.43
2023-04-06T12:11:43.487Z,12.45
2023-04-06T12:12:46.513Z,13.77
2023-04-06T12:13:49.414Z,12.32
2023-04-06T12:14:53.206Z,11.77
2023-04-06T12:15:56.110Z,19.85
2023-04-06T12:17:00.941Z,11.63
2023-04-06T12:18:03.843Z,10.23
2023-04-06T12:19:07.772Z,11.48
2023-04-06T12:20:22.520Z,11.65
2023-04-06T12:21:29.588Z,12.02
2023-04-06T12:22:32.974Z,11.10
2023-04-06T12:23:35.634Z,11.00
2023-04-06T12:24:38.369Z,9.65
2023-04-06T12:25:43.022Z,10.00
2023-04-06T12:26:48.364Z,12.07
2023-04-06T12:27:51.551Z,22.25
2023-04-06T12:28:54.568Z,31.73
2023-04-06T12:29:57.280Z,34.97
2023-04-06T12:31:01.092Z,21.85
2023-04-06T12:58:35.112Z,12.77
2023-04-06T13:01:18.720Z,15.63
2023-04-06T13:02:22.236Z,17.23
2023-04-06T13:03:25.024Z,12.43
2023-04-06T13:04:27.527Z,9.18
2023-04-06T13:05:32.487Z,10.43
2023-04-06T13:06:37.629Z,45.58
2023-04-06T13:07:40.090Z,25.58
2023-04-06T13:08:44.012Z,20.17
2023-04-06T13:09:48.269Z,16.52
2023-04-06T13:10:54.351Z,14.70
2023-04-06T13:11:57.631Z,15.10
2023-04-06T13:13:02.479Z,12.68
2023-04-06T13:14:30.587Z,10.68
2023-04-06T13:15:33.163Z,12.00
2023-04-06T13:16:36.138Z,12.80
2023-04-06T13:17:38.615Z,13.07
2023-04-06T13:18:41.461Z,11.30
2023-04-06T13:19:44.672Z,13.60
2023-04-06T13:20:48.728Z,15.93
2023-04-06T13:21:51.234Z,11.30
2023-04-06T13:22:53.623Z,12.25
2023-04-06T13:23:56.072Z,13.35
2023-04-06T13:24:58.800Z,12.70
2023-04-06T13:26:08.411Z,22.55
2023-04-06T13:27:11.019Z,14.77
2023-04-06T13:28:13.511Z,12.55
2023-04-06T13:29:16.976Z,11.20
2023-04-06T13:30:19.850Z,11.18
2023-04-06T13:31:22.334Z,13.35
2023-04-06T13:32:25.652Z,12.68
2023-04-06T13:33:30.161Z,11.43
2023-04-06T13:34:32.591Z,10.90
2023-04-06T13:35:36.702Z,11.25
2023-04-06T13:36:41.831Z,10.48
2023-04-06T13:37:45.411Z,10.60
2023-04-06T13:38:47.899Z,11.38
2023-04-06T13:39:51.040Z,11.25
2023-04-06T13:40:53.727Z,14.25
2023-04-06T13:41:59.694Z,11.20
2023-04-06T13:43:03.073Z,11.35
2023-04-06T13:44:05.702Z,9.48
2023-04-06T13:45:09.399Z,9.52
2023-04-06T13:46:12.819Z,7.10
2023-04-06T13:47:16.348Z,7.30
2023-04-06T13:48:19.477Z,6.70
2023-04-06T13:49:21.992Z,6.45
2023-04-06T13:50:27.019Z,7.60
2023-04-06T13:51:29.536Z,8.23
2023-04-06T13:52:32.039Z,6.18
2023-04-06T13:53:34.457Z,7.00
2023-04-06T13:54:37.347Z,8.52
2023-04-06T13:55:39.673Z,6.72
2023-04-06T13:56:42.003Z,5.85
2023-04-06T13:57:44.588Z,5.75
2023-04-06T13:58:46.943Z,15.50
2023-04-06T13:59:51.518Z,4.82
2023-04-06T14:00:54.115Z,4.38
2023-04-06T14:01:56.708Z,5.78
2023-04-06T14:02:59.448Z,4.35
2023-04-06T14:04:02.019Z,4.97
2023-04-06T14:05:04.750Z,6.97
2023-04-06T14:07:21.029Z,22.05
2023-04-06T14:08:24.235Z,76.38
2023-04-06T14:09:26.701Z,26.60
2023-04-06T14:10:29.258Z,18.02
2023-04-06T14:11:32.895Z,22.92
2023-04-06T14:12:35.247Z,41.17
2023-04-06T14:13:39.402Z,11.32
2023-04-06T14:14:42.486Z,10.20
2023-04-06T14:15:45.069Z,13.73
2023-04-06T14:16:48.330Z,8.52
2023-04-06T14:17:51.584Z,9.27
2023-04-06T14:18:53.996Z,8.93
2023-04-06T14:19:57.274Z,6.93
2023-04-06T14:20:59.845Z,8.05
2023-04-06T14:22:02.752Z,7.18
2023-04-06T14:23:05.979Z,7.65
2023-04-06T14:24:09.728Z,5.32
2023-04-06T14:25:12.359Z,6.78
2023-04-06T14:26:14.952Z,9.02
2023-04-06T14:27:17.801Z,5.30
2023-04-06T14:28:23.149Z,5.13
2023-04-06T14:29:26.120Z,5.88
2023-04-06T14:30:30.838Z,8.18
2023-04-06T14:31:33.830Z,7.65
2023-04-06T14:32:37.374Z,6.20
2023-04-06T14:33:41.413Z,5.80
2023-04-06T14:34:43.949Z,5.97
2023-04-06T14:35:46.451Z,6.20
2023-04-06T14:36:48.860Z,7.60
2023-04-06T14:37:51.586Z,5.68
2023-04-06T14:38:54.752Z,6.07
2023-04-06T14:39:57.199Z,4.38
2023-04-06T14:40:59.660Z,6.13
2023-04-06T14:42:02.320Z,6.35
2023-04-06T14:43:05.779Z,4.65